createdAt,value
2018-07-15T00:00:35.070Z,4.30
2018-07-15T00:05:29.717Z,4.20
2018-07-15T00:10:25.247Z,4.13
2018-07-15T00:15:20.554Z,3.90
2018-07-15T00:20:15.653Z,3.60
2018-07-15T00:25:10.572Z,4.10
2018-07-15T00:30:06.224Z,4.00
2018-07-15T00:35:01.107Z,3.90
2018-07-15T00:39:56.468Z,4.30
2018-07-15T00:44:50.941Z,4.20
2018-07-15T00:49:48.274Z,4.67
2018-07-15T00:54:43.853Z,4.70
2018-07-15T00:59:39.095Z,4.80
2018-07-15T01:04:33.953Z,4.67
2018-07-15T01:09:29.249Z,4.27
2018-07-15T01:14:24.150Z,4.50
2018-07-15T01:19:19.188Z,4.50
2018-07-15T01:24:13.608Z,4.50
2018-07-15T01:29:07.849Z,4.53
2018-07-15T01:34:02.318Z,4.43
2018-07-15T01:38:59.558Z,3.93
2018-07-15T01:43:54.502Z,4.13
2018-07-15T01:48:49.041Z,4.00
2018-07-15T01:53:43.774Z,4.67
2018-07-15T01:58:38.363Z,4.07
2018-07-15T02:03:34.928Z,4.73
2018-07-15T02:08:30.175Z,4.50
2018-07-15T02:13:24.732Z,4.17
2018-07-15T02:18:19.476Z,4.77
2018-07-15T02:23:14.086Z,4.83
2018-07-15T02:28:08.795Z,5.13
2018-07-15T02:33:03.330Z,5.20
2018-07-15T02:37:58.117Z,5.07
2018-07-15T02:42:52.648Z,5.50
2018-07-15T02:47:48.591Z,4.70
2018-07-15T02:52:43.487Z,4.97
2018-07-15T02:57:37.977Z,5.13
2018-07-15T03:02:32.654Z,5.40
2018-07-15T03:07:26.948Z,5.47
2018-07-15T03:12:21.235Z,5.10
2018-07-15T03:17:16.263Z,5.30
2018-07-15T03:22:10.902Z,5.57
2018-07-15T03:27:05.449Z,5.13
2018-07-15T03:32:02.003Z,5.73
2018-07-15T03:36:56.616Z,5.40
2018-07-15T03:41:51.538Z,5.40
2018-07-15T03:46:45.955Z,5.80
2018-07-15T03:51:40.489Z,6.07
2018-07-15T03:56:35.082Z,5.30
2018-07-15T04:01:29.424Z,5.17
2018-07-15T04:06:24.376Z,5.90
2018-07-15T04:11:18.982Z,5.07
2018-07-15T04:16:13.569Z,5.13
2018-07-15T04:21:08.082Z,5.00
2018-07-15T04:26:02.769Z,5.73
2018-07-15T04:30:57.366Z,5.53
2018-07-15T04:35:52.203Z,5.53
2018-07-15T04:40:46.911Z,5.47
2018-07-15T04:45:42.042Z,5.40
2018-07-15T04:50:36.948Z,5.17
2018-07-15T04:55:31.485Z,6.03
2018-07-15T05:00:25.977Z,5.47
2018-07-15T05:05:21.669Z,5.57
2018-07-15T05:10:16.287Z,6.00
2018-07-15T05:15:10.681Z,6.17
2018-07-15T05:20:05.558Z,5.77
2018-07-15T05:25:00.122Z,5.63
2018-07-15T05:29:55.194Z,5.00
2018-07-15T05:34:49.799Z,4.73
2018-07-15T05:39:44.500Z,4.80
2018-07-15T05:44:39.307Z,4.53
2018-07-15T05:49:33.853Z,4.50
2018-07-15T05:54:28.638Z,4.73
2018-07-15T05:59:23.701Z,4.73
2018-07-15T06:04:19.134Z,5.17
2018-07-15T06:09:13.913Z,4.73
2018-07-15T06:14:09.182Z,4.87
2018-07-15T06:19:04.223Z,4.57
2018-07-15T06:23:59.062Z,5.10
2018-07-15T06:28:53.810Z,5.03
2018-07-15T06:33:48.700Z,4.83
2018-07-15T06:38:43.442Z,4.90
2018-07-15T06:43:38.186Z,4.37
2018-07-15T06:48:32.948Z,4.37
2018-07-15T06:53:27.799Z,4.23
2018-07-15T06:58:22.750Z,4.80
2018-07-15T07:03:17.586Z,4.53
2018-07-15T07:08:12.895Z,4.27
2018-07-15T07:13:07.795Z,4.40
2018-07-15T07:18:03.254Z,3.77
2018-07-15T07:22:58.604Z,4.00
2018-07-15T07:27:53.681Z,3.90
2018-07-15T07:32:48.576Z,3.90
2018-07-15T07:37:43.404Z,3.97
2018-07-15T07:42:38.202Z,3.73
2018-07-15T07:47:33.080Z,3.20
2018-07-15T07:52:28.035Z,3.53
2018-07-15T07:57:22.753Z,3.37
2018-07-15T08:02:17.698Z,3.37
2018-07-15T08:07:12.457Z,3.80
2018-07-15T08:12:07.018Z,3.30
2018-07-15T08:17:02.705Z,3.60
2018-07-15T08:21:57.790Z,3.67
2018-07-15T08:26:52.515Z,3.20
2018-07-15T08:31:47.209Z,3.23
2018-07-15T08:36:42.423Z,2.87
2018-07-15T08:41:37.156Z,3.13
2018-07-15T08:46:31.908Z,2.70
2018-07-15T08:51:26.547Z,2.57
2018-07-15T08:56:21.514Z,2.30
2018-07-15T09:01:16.222Z,2.20
2018-07-15T09:06:11.268Z,2.37
2018-07-15T09:11:18.941Z,2.20
2018-07-15T09:16:14.038Z,1.80
2018-07-15T09:21:08.977Z,1.90
2018-07-15T09:26:04.162Z,2.10
2018-07-15T09:30:58.881Z,2.20
2018-07-15T09:35:54.351Z,2.30
2018-07-15T09:40:49.155Z,1.97
2018-07-15T09:45:43.956Z,2.17
2018-07-15T09:50:39.046Z,2.50
2018-07-15T09:55:33.835Z,2.90
2018-07-15T10:00:33.846Z,2.47
2018-07-15T10:05:28.778Z,2.40
2018-07-15T10:10:23.562Z,2.40
2018-07-15T10:24:12.627Z,2.60
2018-07-15T10:29:07.717Z,2.77
2018-07-15T10:34:02.440Z,2.70
2018-07-15T10:38:57.208Z,2.33
2018-07-15T10:43:52.105Z,2.40
2018-07-15T10:48:46.948Z,2.50
2018-07-15T10:53:41.696Z,3.07
2018-07-15T10:58:36.584Z,2.50
2018-07-15T11:03:31.525Z,2.50
2018-07-15T11:08:26.322Z,2.20
2018-07-15T11:13:21.112Z,2.40
2018-07-15T11:18:15.877Z,2.30
2018-07-15T11:23:10.450Z,2.30
2018-07-15T11:28:05.196Z,2.40
2018-07-15T11:32:59.701Z,2.30
2018-07-15T11:37:54.799Z,2.00
2018-07-15T11:42:49.631Z,2.17
2018-07-15T11:47:44.264Z,2.30
2018-07-15T11:52:39.025Z,1.80
2018-07-15T11:57:33.519Z,1.67
2018-07-15T12:02:27.991Z,1.70
2018-07-15T12:07:22.761Z,1.70
2018-07-15T12:12:17.221Z,1.80
2018-07-15T12:17:12.007Z,1.80
2018-07-15T12:22:06.738Z,1.60
2018-07-15T12:27:05.123Z,1.40
2018-07-15T12:31:59.870Z,1.40
2018-07-15T12:36:54.988Z,1.90
2018-07-15T12:41:49.885Z,1.60
2018-07-15T12:46:44.869Z,1.80
2018-07-15T12:51:39.838Z,1.60
2018-07-15T12:56:34.701Z,1.90
2018-07-15T13:01:29.483Z,1.60
2018-07-15T13:06:24.290Z,1.70
2018-07-15T13:11:19.020Z,1.50
2018-07-15T13:16:14.799Z,1.93
2018-07-15T13:21:09.461Z,1.60
2018-07-15T13:26:04.211Z,1.90
2018-07-15T13:30:59.000Z,1.80
2018-07-15T13:35:54.245Z,2.07
2018-07-15T13:40:49.376Z,2.10
2018-07-15T13:45:44.135Z,2.00
2018-07-15T13:50:39.213Z,1.80
2018-07-15T13:55:34.598Z,1.90
2018-07-15T14:00:29.299Z,1.73
2018-07-15T14:05:24.102Z,1.47
2018-07-15T14:10:18.849Z,1.57
2018-07-15T14:15:27.748Z,1.60
2018-07-15T14:20:22.496Z,1.47
2018-07-15T14:25:17.008Z,1.40
2018-07-15T14:30:11.853Z,1.70
2018-07-15T14:35:07.098Z,1.50
2018-07-15T14:40:01.945Z,1.50
2018-07-15T14:44:57.416Z,1.40
2018-07-15T14:49:52.324Z,1.70
2018-07-15T14:54:47.182Z,1.60
2018-07-15T14:59:41.998Z,1.70
2018-07-15T15:04:37.210Z,1.37
2018-07-15T15:09:32.308Z,1.33
2018-07-15T15:14:27.252Z,1.80
2018-07-15T15:19:22.050Z,1.50
2018-07-15T15:24:17.284Z,1.40
2018-07-15T15:29:12.055Z,1.20
2018-07-15T15:34:07.069Z,1.97
2018-07-15T15:39:01.859Z,1.50
2018-07-15T15:43:56.322Z,1.30
2018-07-15T15:48:51.109Z,1.30
2018-07-15T15:53:45.863Z,1.40
2018-07-15T15:58:40.633Z,2.07
2018-07-15T16:03:35.628Z,1.93
2018-07-15T16:08:30.438Z,1.67
2018-07-15T16:13:25.287Z,1.50
2018-07-15T16:18:20.276Z,2.10
2018-07-15T16:23:14.926Z,1.80
2018-07-15T16:28:09.814Z,1.37
2018-07-15T16:33:04.943Z,1.27
2018-07-15T16:38:00.280Z,1.40
2018-07-15T16:42:55.060Z,2.00
2018-07-15T16:47:49.864Z,1.30
2018-07-15T16:52:45.012Z,1.37
2018-07-15T16:57:39.962Z,1.30
2018-07-15T17:02:34.740Z,1.20
2018-07-15T17:07:30.135Z,1.30
2018-07-15T17:12:24.680Z,1.40
2018-07-15T17:17:19.558Z,1.30
2018-07-15T17:22:14.058Z,1.30
2018-07-15T17:27:08.705Z,1.20
2018-07-15T17:32:03.303Z,1.25
2018-07-15T17:36:57.954Z,1.23
2018-07-15T17:41:52.450Z,1.07
2018-07-15T17:46:46.718Z,1.07
2018-07-15T17:51:41.463Z,1.10
2018-07-15T17:56:37.014Z,1.40
2018-07-15T18:01:31.794Z,1.20
2018-07-15T18:06:26.380Z,1.43
2018-07-15T18:11:21.107Z,1.10
2018-07-15T18:16:15.344Z,1.20
2018-07-15T18:21:10.156Z,1.33
2018-07-15T18:26:04.987Z,1.10
2018-07-15T18:30:59.511Z,1.00
2018-07-15T18:35:54.206Z,1.20
2018-07-15T18:40:48.758Z,1.10
2018-07-15T18:45:43.214Z,1.00
2018-07-15T18:50:38.024Z,1.13
2018-07-15T18:55:32.994Z,1.07
2018-07-15T19:00:27.483Z,1.00
2018-07-15T19:05:22.308Z,1.27
2018-07-15T19:10:16.808Z,1.30
2018-07-15T19:15:11.294Z,1.00
2018-07-15T19:20:06.391Z,1.10
2018-07-15T19:25:01.907Z,1.20
2018-07-15T19:29:56.646Z,0.80
2018-07-15T19:34:53.699Z,1.17
2018-07-15T19:39:48.244Z,1.20
2018-07-15T19:44:42.756Z,1.00
2018-07-15T19:49:37.464Z,1.17
2018-07-15T19:54:32.280Z,1.00
2018-07-15T19:59:26.719Z,1.10
2018-07-15T20:04:21.190Z,1.10
2018-07-15T20:09:16.306Z,1.13
2018-07-15T20:14:10.822Z,1.17
2018-07-15T20:19:05.334Z,1.10
2018-07-15T20:23:59.892Z,1.30
2018-07-15T20:28:54.680Z,1.07
2018-07-15T20:33:49.222Z,1.00
2018-07-15T20:38:43.732Z,1.00
2018-07-15T20:43:38.274Z,1.17
2018-07-15T20:48:32.848Z,1.23
2018-07-15T20:53:27.749Z,1.20
2018-07-15T20:58:22.219Z,1.17
2018-07-15T21:03:16.759Z,1.10
2018-07-15T21:08:11.320Z,1.10
2018-07-15T21:13:05.911Z,1.10
2018-07-15T21:18:00.713Z,1.20
2018-07-15T21:23:05.642Z,1.00
2018-07-15T21:28:00.594Z,1.13
2018-07-15T21:32:55.097Z,1.27
2018-07-15T21:37:49.425Z,1.47
2018-07-15T21:42:44.148Z,1.30
2018-07-15T21:47:38.899Z,1.40
2018-07-15T21:52:33.920Z,1.10
2018-07-15T21:57:28.442Z,1.40
2018-07-15T22:02:22.971Z,1.17
2018-07-15T22:07:34.489Z,1.23
2018-07-15T22:12:28.976Z,1.33
2018-07-15T22:17:23.622Z,1.13
2018-07-15T22:22:18.316Z,1.30
2018-07-15T22:27:13.125Z,1.40
2018-07-15T22:32:08.164Z,1.30
2018-07-15T22:37:03.138Z,1.80
2018-07-15T22:41:57.878Z,2.00
2018-07-15T22:46:53.041Z,1.70
2018-07-15T22:51:48.062Z,1.30
2018-07-15T22:56:43.182Z,1.50
2018-07-15T23:01:38.170Z,1.50
2018-07-15T23:06:37.092Z,1.73
2018-07-15T23:11:32.297Z,1.50
2018-07-15T23:16:27.657Z,1.83
2018-07-15T23:21:22.468Z,1.87
2018-07-15T23:26:17.184Z,1.70
2018-07-15T23:31:12.594Z,1.83
2018-07-15T23:36:07.416Z,1.60
2018-07-15T23:41:01.959Z,2.17
2018-07-15T23:45:56.242Z,1.90
2018-07-15T23:50:50.766Z,1.80
2018-07-15T23:55:45.335Z,1.50
